sensor_id;sensor_type;location;lat;lon;timestamp;temperature;humidity
5792;DHT22;2922;53.482;10.006;2022-09-24T00:00:18;13.40;99.90
5792;DHT22;2922;53.482;10.006;2022-09-24T00:02:44;13.40;99.90
5792;DHT22;2922;53.482;10.006;2022-09-24T00:05:09;13.30;99.90
5792;DHT22;2922;53.482;10.006;2022-09-24T00:07:35;13.30;99.90
5792;DHT22;2922;53.482;10.006;2022-09-24T00:10:00;13.30;99.90
5792;DHT22;2922;53.482;10.006;2022-09-24T00:12:27;13.30;99.90
5792;DHT22;2922;53.482;10.006;2022-09-24T00:14:53;13.30;99.90
5792;DHT22;2922;53.482;10.006;2022-09-24T00:17:18;13.30;99.90
5792;DHT22;2922;53.482;10.006;2022-09-24T00:19:44;13.30;99.90
5792;DHT22;2922;53.482;10.006;2022-09-24T00:22:09;13.20;99.90
5792;DHT22;2922;53.482;10.006;2022-09-24T00:24:35;13.20;99.90
5792;DHT22;2922;53.482;10.006;2022-09-24T00:27:19;13.20;99.90
5792;DHT22;2922;53.482;10.006;2022-09-24T00:29:45;13.20;99.90
5792;DHT22;2922;53.482;10.006;2022-09-24T00:32:10;13.20;99.90
5792;DHT22;2922;53.482;10.006;2022-09-24T00:34:37;13.20;99.90
5792;DHT22;2922;53.482;10.006;2022-09-24T00:37:03;13.20;99.90
5792;DHT22;2922;53.482;10.006;2022-09-24T00:39:28;13.10;99.90
5792;DHT22;2922;53.482;10.006;2022-09-24T00:41:54;13.10;99.90
5792;DHT22;2922;53.482;10.006;2022-09-24T00:44:45;13.10;99.90
5792;DHT22;2922;53.482;10.006;2022-09-24T00:47:25;13.10;99.90
5792;DHT22;2922;53.482;10.006;2022-09-24T00:49:58;13.00;99.90
5792;DHT22;2922;53.482;10.006;2022-09-24T00:52:25;13.00;99.90
5792;DHT22;2922;53.482;10.006;2022-09-24T00:54:51;13.00;99.90
5792;DHT22;2922;53.482;10.006;2022-09-24T00:57:18;13.00;99.90
5792;DHT22;2922;53.482;10.006;2022-09-24T00:59:44;13.00;99.90
5792;DHT22;2922;53.482;10.006;2022-09-24T01:02:10;13.00;99.90
5792;DHT22;2922;53.482;10.006;2022-09-24T01:04:36;13.00;99.90
5792;DHT22;2922;53.482;10.006;2022-09-24T01:07:02;13.00;99.90
5792;DHT22;2922;53.482;10.006;2022-09-24T01:09:28;13.00;99.90
5792;DHT22;2922;53.482;10.006;2022-09-24T01:12:17;13.00;99.90
5792;DHT22;2922;53.482;10.006;2022-09-24T01:17:43;13.00;99.90
5792;DHT22;2922;53.482;10.006;2022-09-24T01:23:22;13.00;99.90
5792;DHT22;2922;53.482;10.006;2022-09-24T01:31:59;13.00;99.90
5792;DHT22;2922;53.482;10.006;2022-09-24T01:34:29;13.00;99.90
5792;DHT22;2922;53.482;10.006;2022-09-24T01:36:57;13.00;99.90
5792;DHT22;2922;53.482;10.006;2022-09-24T01:39:26;13.00;99.90
5792;DHT22;2922;53.482;10.006;2022-09-24T01:41:52;12.90;99.90
5792;DHT22;2922;53.482;10.006;2022-09-24T01:44:18;12.90;99.90
5792;DHT22;2922;53.482;10.006;2022-09-24T01:46:44;12.90;99.90
5792;DHT22;2922;53.482;10.006;2022-09-24T01:49:10;12.90;99.90
5792;DHT22;2922;53.482;10.006;2022-09-24T01:51:45;12.90;99.90
5792;DHT22;2922;53.482;10.006;2022-09-24T01:54:29;12.90;99.90
5792;DHT22;2922;53.482;10.006;2022-09-24T01:57:14;12.90;99.90
5792;DHT22;2922;53.482;10.006;2022-09-24T02:02:37;12.90;99.90
5792;DHT22;2922;53.482;10.006;2022-09-24T02:05:13;12.90;99.90
5792;DHT22;2922;53.482;10.006;2022-09-24T02:08:00;12.90;99.90
5792;DHT22;2922;53.482;10.006;2022-09-24T02:10:31;12.90;99.90
5792;DHT22;2922;53.482;10.006;2022-09-24T02:13:02;12.80;99.90
5792;DHT22;2922;53.482;10.006;2022-09-24T02:15:33;12.80;99.90
5792;DHT22;2922;53.482;10.006;2022-09-24T02:18:05;12.80;99.90
5792;DHT22;2922;53.482;10.006;2022-09-24T02:20:34;12.80;99.90
5792;DHT22;2922;53.482;10.006;2022-09-24T02:23:01;12.80;99.90
5792;DHT22;2922;53.482;10.006;2022-09-24T02:25:32;12.80;99.90
5792;DHT22;2922;53.482;10.006;2022-09-24T02:27:59;12.80;99.90
5792;DHT22;2922;53.482;10.006;2022-09-24T02:30:25;12.80;99.90
5792;DHT22;2922;53.482;10.006;2022-09-24T02:32:52;12.80;99.90
5792;DHT22;2922;53.482;10.006;2022-09-24T02:35:19;12.80;99.90
5792;DHT22;2922;53.482;10.006;2022-09-24T02:37:45;12.80;99.90
5792;DHT22;2922;53.482;10.006;2022-09-24T02:40:13;12.70;99.90
5792;DHT22;2922;53.482;10.006;2022-09-24T02:42:39;12.70;99.90
5792;DHT22;2922;53.482;10.006;2022-09-24T02:45:07;12.70;99.90
5792;DHT22;2922;53.482;10.006;2022-09-24T02:47:33;12.70;99.90
5792;DHT22;2922;53.482;10.006;2022-09-24T02:49:58;12.70;99.90
5792;DHT22;2922;53.482;10.006;2022-09-24T02:52:24;12.70;99.90
5792;DHT22;2922;53.482;10.006;2022-09-24T02:54:50;12.70;99.90
5792;DHT22;2922;53.482;10.006;2022-09-24T02:57:16;12.70;99.90
5792;DHT22;2922;53.482;10.006;2022-09-24T02:59:43;12.70;99.90
5792;DHT22;2922;53.482;10.006;2022-09-24T03:02:08;12.70;99.90
5792;DHT22;2922;53.482;10.006;2022-09-24T03:04:34;12.70;99.90
5792;DHT22;2922;53.482;10.006;2022-09-24T03:07:00;12.70;99.90
5792;DHT22;2922;53.482;10.006;2022-09-24T03:09:25;12.70;99.90
5792;DHT22;2922;53.482;10.006;2022-09-24T03:11:51;12.70;99.90
5792;DHT22;2922;53.482;10.006;2022-09-24T03:14:17;12.70;99.90
5792;DHT22;2922;53.482;10.006;2022-09-24T03:16:42;12.70;99.90
5792;DHT22;2922;53.482;10.006;2022-09-24T03:19:08;12.70;99.90
5792;DHT22;2922;53.482;10.006;2022-09-24T03:21:34;12.70;99.90
5792;DHT22;2922;53.482;10.006;2022-09-24T03:23:59;12.70;99.90
5792;DHT22;2922;53.482;10.006;2022-09-24T03:26:25;12.70;99.90
5792;DHT22;2922;53.482;10.006;2022-09-24T03:28:51;12.70;99.90
5792;DHT22;2922;53.482;10.006;2022-09-24T03:31:17;12.70;99.90
5792;DHT22;2922;53.482;10.006;2022-09-24T03:33:47;12.70;99.90
5792;DHT22;2922;53.482;10.006;2022-09-24T03:36:19;12.70;99.90
5792;DHT22;2922;53.482;10.006;2022-09-24T03:38:50;12.70;99.90
5792;DHT22;2922;53.482;10.006;2022-09-24T03:41:16;12.70;99.90
5792;DHT22;2922;53.482;10.006;2022-09-24T03:43:43;12.70;99.90
5792;DHT22;2922;53.482;10.006;2022-09-24T03:46:10;12.60;99.90
5792;DHT22;2922;53.482;10.006;2022-09-24T03:48:38;12.60;99.90
5792;DHT22;2922;53.482;10.006;2022-09-24T03:51:15;12.60;99.90
5792;DHT22;2922;53.482;10.006;2022-09-24T03:53:43;12.60;99.90
5792;DHT22;2922;53.482;10.006;2022-09-24T03:56:08;12.60;99.90
5792;DHT22;2922;53.482;10.006;2022-09-24T03:58:36;12.60;99.90
5792;DHT22;2922;53.482;10.006;2022-09-24T04:01:04;12.60;99.90
5792;DHT22;2922;53.482;10.006;2022-09-24T04:03:31;12.60;99.90
5792;DHT22;2922;53.482;10.006;2022-09-24T04:05:56;12.60;99.90
5792;DHT22;2922;53.482;10.006;2022-09-24T04:08:22;12.60;99.90
5792;DHT22;2922;53.482;10.006;2022-09-24T04:10:49;12.60;99.90
5792;DHT22;2922;53.482;10.006;2022-09-24T04:13:16;12.60;99.90
5792;DHT22;2922;53.482;10.006;2022-09-24T04:15:42;12.60;99.90
5792;DHT22;2922;53.482;10.006;2022-09-24T04:18:08;12.60;99.90
5792;DHT22;2922;53.482;10.006;2022-09-24T04:20:33;12.60;99.90
5792;DHT22;2922;53.482;10.006;2022-09-24T04:22:59;12.60;99.90
5792;DHT22;2922;53.482;10.006;2022-09-24T04:25:28;12.60;99.90
5792;DHT22;2922;53.482;10.006;2022-09-24T04:27:59;12.60;99.90
5792;DHT22;2922;53.482;10.006;2022-09-24T04:30:26;12.60;99.90
5792;DHT22;2922;53.482;10.006;2022-09-24T04:32:52;12.60;99.90
5792;DHT22;2922;53.482;10.006;2022-09-24T04:35:19;12.60;99.90
5792;DHT22;2922;53.482;10.006;2022-09-24T04:37:46;12.60;99.90
5792;DHT22;2922;53.482;10.006;2022-09-24T04:40:12;12.60;99.90
5792;DHT22;2922;53.482;10.006;2022-09-24T04:42:38;12.60;99.90
5792;DHT22;2922;53.482;10.006;2022-09-24T04:45:08;12.60;99.90
5792;DHT22;2922;53.482;10.006;2022-09-24T04:47:35;12.60;99.90
5792;DHT22;2922;53.482;10.006;2022-09-24T04:50:01;12.60;99.90
5792;DHT22;2922;53.482;10.006;2022-09-24T04:52:27;12.60;99.90
5792;DHT22;2922;53.482;10.006;2022-09-24T04:54:54;12.60;99.90
5792;DHT22;2922;53.482;10.006;2022-09-24T04:57:22;12.60;99.90
5792;DHT22;2922;53.482;10.006;2022-09-24T04:59:48;12.60;99.90
5792;DHT22;2922;53.482;10.006;2022-09-24T05:02:13;12.60;99.90
5792;DHT22;2922;53.482;10.006;2022-09-24T05:04:39;12.60;99.90
5792;DHT22;2922;53.482;10.006;2022-09-24T05:07:04;12.60;99.90
5792;DHT22;2922;53.482;10.006;2022-09-24T05:09:30;12.60;99.90
5792;DHT22;2922;53.482;10.006;2022-09-24T05:11:57;12.60;99.90
5792;DHT22;2922;53.482;10.006;2022-09-24T05:14:23;12.60;99.90
5792;DHT22;2922;53.482;10.006;2022-09-24T05:16:48;12.60;99.90
5792;DHT22;2922;53.482;10.006;2022-09-24T05:19:14;12.50;99.90
5792;DHT22;2922;53.482;10.006;2022-09-24T05:21:39;12.50;99.90
5792;DHT22;2922;53.482;10.006;2022-09-24T05:24:05;12.50;99.90
5792;DHT22;2922;53.482;10.006;2022-09-24T05:26:31;12.50;99.90
5792;DHT22;2922;53.482;10.006;2022-09-24T05:29:15;12.60;99.90
5792;DHT22;2922;53.482;10.006;2022-09-24T05:31:40;12.60;99.90
5792;DHT22;2922;53.482;10.006;2022-09-24T05:34:06;12.60;99.90
5792;DHT22;2922;53.482;10.006;2022-09-24T05:36:32;12.60;99.90
5792;DHT22;2922;53.482;10.006;2022-09-24T05:38:57;12.60;99.90
5792;DHT22;2922;53.482;10.006;2022-09-24T05:41:23;12.60;99.90
5792;DHT22;2922;53.482;10.006;2022-09-24T05:43:48;12.60;99.90
5792;DHT22;2922;53.482;10.006;2022-09-24T05:46:14;12.60;99.90
5792;DHT22;2922;53.482;10.006;2022-09-24T05:48:39;12.60;99.90
5792;DHT22;2922;53.482;10.006;2022-09-24T05:51:05;12.60;99.90
5792;DHT22;2922;53.482;10.006;2022-09-24T05:53:31;12.60;99.90
5792;DHT22;2922;53.482;10.006;2022-09-24T05:55:58;12.60;99.90
5792;DHT22;2922;53.482;10.006;2022-09-24T05:58:23;12.50;99.90
5792;DHT22;2922;53.482;10.006;2022-09-24T06:00:50;12.50;99.90
5792;DHT22;2922;53.482;10.006;2022-09-24T06:03:17;12.60;99.90
5792;DHT22;2922;53.482;10.006;2022-09-24T06:05:47;12.50;99.90
5792;DHT22;2922;53.482;10.006;2022-09-24T06:08:14;12.50;99.90
5792;DHT22;2922;53.482;10.006;2022-09-24T06:10:44;12.50;99.90
5792;DHT22;2922;53.482;10.006;2022-09-24T06:13:11;12.50;99.90
5792;DHT22;2922;53.482;10.006;2022-09-24T06:15:43;12.50;99.90
5792;DHT22;2922;53.482;10.006;2022-09-24T06:18:09;12.60;99.90
5792;DHT22;2922;53.482;10.006;2022-09-24T06:20:35;12.60;99.90
5792;DHT22;2922;53.482;10.006;2022-09-24T06:23:01;12.60;99.90
5792;DHT22;2922;53.482;10.006;2022-09-24T06:25:27;12.60;99.90
5792;DHT22;2922;53.482;10.006;2022-09-24T06:27:58;12.60;99.90
5792;DHT22;2922;53.482;10.006;2022-09-24T06:30:37;12.60;99.90
5792;DHT22;2922;53.482;10.006;2022-09-24T06:33:05;12.60;99.90
5792;DHT22;2922;53.482;10.006;2022-09-24T06:35:33;12.60;99.90
5792;DHT22;2922;53.482;10.006;2022-09-24T06:38:00;12.60;99.90
5792;DHT22;2922;53.482;10.006;2022-09-24T06:40:26;12.60;99.90
5792;DHT22;2922;53.482;10.006;2022-09-24T06:42:52;12.60;99.90
5792;DHT22;2922;53.482;10.006;2022-09-24T06:45:19;12.50;99.90
5792;DHT22;2922;53.482;10.006;2022-09-24T06:47:51;12.60;99.90
5792;DHT22;2922;53.482;10.006;2022-09-24T06:50:17;12.60;99.90
5792;DHT22;2922;53.482;10.006;2022-09-24T06:52:42;12.50;99.90
5792;DHT22;2922;53.482;10.006;2022-09-24T06:55:08;12.60;99.90
5792;DHT22;2922;53.482;10.006;2022-09-24T06:57:33;12.50;99.90
5792;DHT22;2922;53.482;10.006;2022-09-24T06:59:59;12.50;99.90
5792;DHT22;2922;53.482;10.006;2022-09-24T07:02:25;12.50;99.90
5792;DHT22;2922;53.482;10.006;2022-09-24T07:04:50;12.50;99.90
5792;DHT22;2922;53.482;10.006;2022-09-24T07:07:16;12.50;99.90
5792;DHT22;2922;53.482;10.006;2022-09-24T07:09:54;12.50;99.90
5792;DHT22;2922;53.482;10.006;2022-09-24T07:12:20;12.50;99.90
5792;DHT22;2922;53.482;10.006;2022-09-24T07:14:45;12.50;99.90
5792;DHT22;2922;53.482;10.006;2022-09-24T07:17:11;12.50;99.90
5792;DHT22;2922;53.482;10.006;2022-09-24T07:19:36;12.50;99.90
5792;DHT22;2922;53.482;10.006;2022-09-24T07:22:03;12.50;99.90
5792;DHT22;2922;53.482;10.006;2022-09-24T07:24:29;12.50;99.90
5792;DHT22;2922;53.482;10.006;2022-09-24T07:26:54;12.50;99.90
5792;DHT22;2922;53.482;10.006;2022-09-24T07:29:20;12.60;99.90
5792;DHT22;2922;53.482;10.006;2022-09-24T07:31:45;12.60;99.90
5792;DHT22;2922;53.482;10.006;2022-09-24T07:34:11;12.60;99.90
5792;DHT22;2922;53.482;10.006;2022-09-24T07:36:39;12.60;99.90
5792;DHT22;2922;53.482;10.006;2022-09-24T07:39:04;12.60;99.90
5792;DHT22;2922;53.482;10.006;2022-09-24T07:41:30;12.60;99.90
5792;DHT22;2922;53.482;10.006;2022-09-24T07:43:56;12.60;99.90
5792;DHT22;2922;53.482;10.006;2022-09-24T07:46:21;12.70;99.90
5792;DHT22;2922;53.482;10.006;2022-09-24T07:48:47;12.70;99.90
5792;DHT22;2922;53.482;10.006;2022-09-24T07:51:13;12.70;99.90
5792;DHT22;2922;53.482;10.006;2022-09-24T07:53:39;12.70;99.90
5792;DHT22;2922;53.482;10.006;2022-09-24T07:56:05;12.70;99.90
5792;DHT22;2922;53.482;10.006;2022-09-24T07:58:30;12.70;99.90
5792;DHT22;2922;53.482;10.006;2022-09-24T08:00:57;12.70;99.90
5792;DHT22;2922;53.482;10.006;2022-09-24T08:03:23;12.70;99.90
5792;DHT22;2922;53.482;10.006;2022-09-24T08:05:49;12.70;99.90
5792;DHT22;2922;53.482;10.006;2022-09-24T08:08:14;12.70;99.90
5792;DHT22;2922;53.482;10.006;2022-09-24T08:10:40;12.70;99.90
5792;DHT22;2922;53.482;10.006;2022-09-24T08:13:06;12.70;99.90
5792;DHT22;2922;53.482;10.006;2022-09-24T08:15:33;12.70;99.90
5792;DHT22;2922;53.482;10.006;2022-09-24T08:18:03;12.70;99.90
5792;DHT22;2922;53.482;10.006;2022-09-24T08:20:30;12.70;99.90
5792;DHT22;2922;53.482;10.006;2022-09-24T08:23:07;12.70;99.90
5792;DHT22;2922;53.482;10.006;2022-09-24T08:25:34;12.70;99.90
5792;DHT22;2922;53.482;10.006;2022-09-24T08:28:02;12.70;99.90
5792;DHT22;2922;53.482;10.006;2022-09-24T08:30:28;12.70;99.90
5792;DHT22;2922;53.482;10.006;2022-09-24T08:32:55;12.80;99.90
5792;DHT22;2922;53.482;10.006;2022-09-24T08:35:21;12.80;99.90
5792;DHT22;2922;53.482;10.006;2022-09-24T08:37:47;12.80;99.90
5792;DHT22;2922;53.482;10.006;2022-09-24T08:40:19;12.80;99.90
5792;DHT22;2922;53.482;10.006;2022-09-24T08:43:22;12.80;99.90
5792;DHT22;2922;53.482;10.006;2022-09-24T08:45:45;12.80;99.90
5792;DHT22;2922;53.482;10.006;2022-09-24T08:48:34;12.80;99.90
5792;DHT22;2922;53.482;10.006;2022-09-24T08:51:04;12.80;99.90
5792;DHT22;2922;53.482;10.006;2022-09-24T08:56:23;12.90;99.90
5792;DHT22;2922;53.482;10.006;2022-09-24T08:59:01;12.90;99.90
5792;DHT22;2922;53.482;10.006;2022-09-24T09:07:00;13.10;99.90
5792;DHT22;2922;53.482;10.006;2022-09-24T09:09:49;13.10;99.90
5792;DHT22;2922;53.482;10.006;2022-09-24T09:20:38;13.30;99.90
5792;DHT22;2922;53.482;10.006;2022-09-24T09:23:33;13.40;99.90
5792;DHT22;2922;53.482;10.006;2022-09-24T09:26:01;13.40;99.90
5792;DHT22;2922;53.482;10.006;2022-09-24T09:28:28;13.50;99.90
5792;DHT22;2922;53.482;10.006;2022-09-24T09:44:43;13.60;99.90
5792;DHT22;2922;53.482;10.006;2022-09-24T09:47:44;13.70;99.90
5792;DHT22;2922;53.482;10.006;2022-09-24T09:50:48;13.70;99.90
5792;DHT22;2922;53.482;10.006;2022-09-24T09:55:51;13.70;99.90
5792;DHT22;2922;53.482;10.006;2022-09-24T09:58:20;13.70;99.90
5792;DHT22;2922;53.482;10.006;2022-09-24T10:00:46;13.70;99.90
5792;DHT22;2922;53.482;10.006;2022-09-24T10:03:29;13.80;99.90
5792;DHT22;2922;53.482;10.006;2022-09-24T10:05:58;13.80;99.90
5792;DHT22;2922;53.482;10.006;2022-09-24T10:08:25;13.90;99.90
5792;DHT22;2922;53.482;10.006;2022-09-24T10:10:52;13.90;99.90
5792;DHT22;2922;53.482;10.006;2022-09-24T10:13:19;13.80;99.90
5792;DHT22;2922;53.482;10.006;2022-09-24T10:15:50;13.80;99.90
5792;DHT22;2922;53.482;10.006;2022-09-24T10:18:35;13.90;99.90
5792;DHT22;2922;53.482;10.006;2022-09-24T10:21:04;13.80;99.90
5792;DHT22;2922;53.482;10.006;2022-09-24T10:23:35;13.80;99.90
5792;DHT22;2922;53.482;10.006;2022-09-24T10:26:03;13.80;99.90
5792;DHT22;2922;53.482;10.006;2022-09-24T10:28:29;13.80;99.90
5792;DHT22;2922;53.482;10.006;2022-09-24T10:31:18;13.90;99.90
5792;DHT22;2922;53.482;10.006;2022-09-24T10:33:47;13.80;99.90
5792;DHT22;2922;53.482;10.006;2022-09-24T10:38:39;13.80;99.90
5792;DHT22;2922;53.482;10.006;2022-09-24T10:41:24;13.80;99.90
5792;DHT22;2922;53.482;10.006;2022-09-24T10:43:52;13.90;99.90
5792;DHT22;2922;53.482;10.006;2022-09-24T10:52:10;13.80;99.90
5792;DHT22;2922;53.482;10.006;2022-09-24T10:55:10;13.90;99.90
5792;DHT22;2922;53.482;10.006;2022-09-24T11:00:55;13.90;99.90
5792;DHT22;2922;53.482;10.006;2022-09-24T11:03:59;14.00;99.90
5792;DHT22;2922;53.482;10.006;2022-09-24T11:18:05;14.20;99.90
5792;DHT22;2922;53.482;10.006;2022-09-24T11:20:36;14.30;99.90
5792;DHT22;2922;53.482;10.006;2022-09-24T11:23:16;14.30;99.90
5792;DHT22;2922;53.482;10.006;2022-09-24T11:31:37;14.30;99.90
5792;DHT22;2922;53.482;10.006;2022-09-24T11:34:20;14.30;99.90
5792;DHT22;2922;53.482;10.006;2022-09-24T11:42:23;14.40;99.90
5792;DHT22;2922;53.482;10.006;2022-09-24T11:47:40;14.40;99.90
5792;DHT22;2922;53.482;10.006;2022-09-24T11:53:35;14.40;99.90
5792;DHT22;2922;53.482;10.006;2022-09-24T11:58:41;14.50;99.90
5792;DHT22;2922;53.482;10.006;2022-09-24T12:01:21;14.40;99.90
5792;DHT22;2922;53.482;10.006;2022-09-24T12:04:02;14.40;99.90
5792;DHT22;2922;53.482;10.006;2022-09-24T12:06:36;14.40;99.90
5792;DHT22;2922;53.482;10.006;2022-09-24T12:12:26;14.40;99.90
5792;DHT22;2922;53.482;10.006;2022-09-24T12:14:58;14.50;99.90
5792;DHT22;2922;53.482;10.006;2022-09-24T12:17:50;14.60;99.90
5792;DHT22;2922;53.482;10.006;2022-09-24T12:20:26;14.70;99.90
5792;DHT22;2922;53.482;10.006;2022-09-24T12:23:00;14.70;99.90
5792;DHT22;2922;53.482;10.006;2022-09-24T12:25:30;14.80;99.90
5792;DHT22;2922;53.482;10.006;2022-09-24T12:27:57;14.90;99.90
5792;DHT22;2922;53.482;10.006;2022-09-24T12:30:32;14.90;99.90
5792;DHT22;2922;53.482;10.006;2022-09-24T12:33:43;14.90;99.90
5792;DHT22;2922;53.482;10.006;2022-09-24T12:36:17;14.90;99.90
5792;DHT22;2922;53.482;10.006;2022-09-24T12:38:53;14.90;99.90
5792;DHT22;2922;53.482;10.006;2022-09-24T12:41:46;14.90;99.90
5792;DHT22;2922;53.482;10.006;2022-09-24T12:44:15;14.90;99.90
5792;DHT22;2922;53.482;10.006;2022-09-24T12:46:53;14.90;99.90
5792;DHT22;2922;53.482;10.006;2022-09-24T12:51:52;14.90;99.90
5792;DHT22;2922;53.482;10.006;2022-09-24T12:54:23;14.90;99.90
5792;DHT22;2922;53.482;10.006;2022-09-24T12:57:03;15.00;99.90
5792;DHT22;2922;53.482;10.006;2022-09-24T12:59:29;15.00;99.90
5792;DHT22;2922;53.482;10.006;2022-09-24T13:02:06;15.00;99.90
5792;DHT22;2922;53.482;10.006;2022-09-24T13:04:43;15.00;99.90
5792;DHT22;2922;53.482;10.006;2022-09-24T13:07:29;15.10;99.90
5792;DHT22;2922;53.482;10.006;2022-09-24T13:09:55;15.10;99.90
5792;DHT22;2922;53.482;10.006;2022-09-24T13:12:31;15.10;99.90
5792;DHT22;2922;53.482;10.006;2022-09-24T13:14:58;15.10;99.90
5792;DHT22;2922;53.482;10.006;2022-09-24T13:17:33;15.10;99.90
5792;DHT22;2922;53.482;10.006;2022-09-24T13:20:06;15.20;99.90
5792;DHT22;2922;53.482;10.006;2022-09-24T13:22:36;15.20;99.90
5792;DHT22;2922;53.482;10.006;2022-09-24T13:25:16;15.20;99.90
5792;DHT22;2922;53.482;10.006;2022-09-24T13:28:01;15.20;99.90
5792;DHT22;2922;53.482;10.006;2022-09-24T13:30:37;15.20;99.90
5792;DHT22;2922;53.482;10.006;2022-09-24T13:35:42;15.30;99.90
5792;DHT22;2922;53.482;10.006;2022-09-24T13:38:18;15.30;99.90
5792;DHT22;2922;53.482;10.006;2022-09-24T13:40:52;15.30;99.90
5792;DHT22;2922;53.482;10.006;2022-09-24T13:43:46;15.30;99.90
5792;DHT22;2922;53.482;10.006;2022-09-24T13:46:15;15.40;99.90
5792;DHT22;2922;53.482;10.006;2022-09-24T13:48:50;15.40;99.90
5792;DHT22;2922;53.482;10.006;2022-09-24T13:51:22;15.40;99.90
5792;DHT22;2922;53.482;10.006;2022-09-24T13:56:19;15.40;99.90
5792;DHT22;2922;53.482;10.006;2022-09-24T13:58:46;15.40;99.90
5792;DHT22;2922;53.482;10.006;2022-09-24T14:03:57;15.40;99.90
5792;DHT22;2922;53.482;10.006;2022-09-24T14:06:39;15.40;99.90
5792;DHT22;2922;53.482;10.006;2022-09-24T14:11:57;15.30;99.90
5792;DHT22;2922;53.482;10.006;2022-09-24T14:14:25;15.40;99.90
5792;DHT22;2922;53.482;10.006;2022-09-24T14:16:52;15.30;99.90
5792;DHT22;2922;53.482;10.006;2022-09-24T14:19:21;15.30;99.90
5792;DHT22;2922;53.482;10.006;2022-09-24T14:21:56;15.30;99.90
5792;DHT22;2922;53.482;10.006;2022-09-24T14:24:26;15.30;99.90
5792;DHT22;2922;53.482;10.006;2022-09-24T14:27:13;15.40;99.90
5792;DHT22;2922;53.482;10.006;2022-09-24T14:29:48;15.40;99.90
5792;DHT22;2922;53.482;10.006;2022-09-24T14:32:34;15.30;99.90
5792;DHT22;2922;53.482;10.006;2022-09-24T14:35:20;15.30;99.90
5792;DHT22;2922;53.482;10.006;2022-09-24T14:37:49;15.20;99.90
5792;DHT22;2922;53.482;10.006;2022-09-24T14:40:18;15.20;99.90
5792;DHT22;2922;53.482;10.006;2022-09-24T14:42:47;15.20;99.90
5792;DHT22;2922;53.482;10.006;2022-09-24T14:45:34;15.20;99.90
5792;DHT22;2922;53.482;10.006;2022-09-24T14:48:04;15.20;99.90
5792;DHT22;2922;53.482;10.006;2022-09-24T14:50:38;15.20;99.90
5792;DHT22;2922;53.482;10.006;2022-09-24T14:53:19;15.20;99.90
5792;DHT22;2922;53.482;10.006;2022-09-24T14:55:45;15.20;99.90
5792;DHT22;2922;53.482;10.006;2022-09-24T15:01:13;15.20;99.90
5792;DHT22;2922;53.482;10.006;2022-09-24T15:03:48;15.20;99.90
5792;DHT22;2922;53.482;10.006;2022-09-24T15:06:23;15.20;99.90
5792;DHT22;2922;53.482;10.006;2022-09-24T15:11:26;15.30;99.90
5792;DHT22;2922;53.482;10.006;2022-09-24T15:14:22;15.30;99.90
5792;DHT22;2922;53.482;10.006;2022-09-24T15:16:52;15.20;99.90
5792;DHT22;2922;53.482;10.006;2022-09-24T15:19:21;15.20;99.90
5792;DHT22;2922;53.482;10.006;2022-09-24T15:21:52;15.20;99.90
5792;DHT22;2922;53.482;10.006;2022-09-24T15:24:20;15.20;99.90
5792;DHT22;2922;53.482;10.006;2022-09-24T15:26:48;15.20;99.90
5792;DHT22;2922;53.482;10.006;2022-09-24T15:29:23;15.20;99.90
5792;DHT22;2922;53.482;10.006;2022-09-24T15:31:50;15.20;99.90
5792;DHT22;2922;53.482;10.006;2022-09-24T15:34:15;15.20;99.90
5792;DHT22;2922;53.482;10.006;2022-09-24T15:36:41;15.20;99.90
5792;DHT22;2922;53.482;10.006;2022-09-24T15:39:09;15.20;99.90
5792;DHT22;2922;53.482;10.006;2022-09-24T15:41:34;15.20;99.90
5792;DHT22;2922;53.482;10.006;2022-09-24T15:44:00;15.10;99.90
5792;DHT22;2922;53.482;10.006;2022-09-24T15:46:26;15.20;99.90
5792;DHT22;2922;53.482;10.006;2022-09-24T15:48:51;15.10;99.90
5792;DHT22;2922;53.482;10.006;2022-09-24T15:51:19;15.10;99.90
5792;DHT22;2922;53.482;10.006;2022-09-24T15:53:46;15.10;99.90
5792;DHT22;2922;53.482;10.006;2022-09-24T15:56:11;15.10;99.90
5792;DHT22;2922;53.482;10.006;2022-09-24T15:58:37;15.10;99.90
5792;DHT22;2922;53.482;10.006;2022-09-24T16:01:03;15.10;99.90
5792;DHT22;2922;53.482;10.006;2022-09-24T16:03:31;15.10;99.90
5792;DHT22;2922;53.482;10.006;2022-09-24T16:05:58;15.10;99.90
5792;DHT22;2922;53.482;10.006;2022-09-24T16:08:24;15.00;99.90
5792;DHT22;2922;53.482;10.006;2022-09-24T16:10:51;15.00;99.90
5792;DHT22;2922;53.482;10.006;2022-09-24T16:13:18;15.00;99.90
5792;DHT22;2922;53.482;10.006;2022-09-24T16:15:44;15.00;99.90
5792;DHT22;2922;53.482;10.006;2022-09-24T16:18:12;14.90;99.90
5792;DHT22;2922;53.482;10.006;2022-09-24T16:20:39;14.90;99.90
5792;DHT22;2922;53.482;10.006;2022-09-24T16:23:05;14.90;99.90
5792;DHT22;2922;53.482;10.006;2022-09-24T16:25:31;14.90;99.90
5792;DHT22;2922;53.482;10.006;2022-09-24T16:27:57;14.80;99.90
5792;DHT22;2922;53.482;10.006;2022-09-24T16:30:23;14.80;99.90
5792;DHT22;2922;53.482;10.006;2022-09-24T16:32:49;14.80;99.90
5792;DHT22;2922;53.482;10.006;2022-09-24T16:35:15;14.80;99.90
5792;DHT22;2922;53.482;10.006;2022-09-24T16:37:41;14.80;99.90
5792;DHT22;2922;53.482;10.006;2022-09-24T16:40:06;14.80;99.90
5792;DHT22;2922;53.482;10.006;2022-09-24T16:42:33;14.80;99.90
5792;DHT22;2922;53.482;10.006;2022-09-24T16:44:58;14.80;99.90
5792;DHT22;2922;53.482;10.006;2022-09-24T16:47:24;14.80;99.90
5792;DHT22;2922;53.482;10.006;2022-09-24T16:49:50;14.70;99.90
5792;DHT22;2922;53.482;10.006;2022-09-24T16:52:15;14.70;99.90
5792;DHT22;2922;53.482;10.006;2022-09-24T16:54:41;14.70;99.90
5792;DHT22;2922;53.482;10.006;2022-09-24T16:57:06;14.70;99.90
5792;DHT22;2922;53.482;10.006;2022-09-24T16:59:32;14.70;99.90
5792;DHT22;2922;53.482;10.006;2022-09-24T17:01:58;14.60;99.90
5792;DHT22;2922;53.482;10.006;2022-09-24T17:04:24;14.60;99.90
5792;DHT22;2922;53.482;10.006;2022-09-24T17:06:54;14.60;99.90
5792;DHT22;2922;53.482;10.006;2022-09-24T17:09:20;14.60;99.90
5792;DHT22;2922;53.482;10.006;2022-09-24T17:12:05;14.50;99.90
5792;DHT22;2922;53.482;10.006;2022-09-24T17:14:30;14.50;99.90
5792;DHT22;2922;53.482;10.006;2022-09-24T17:16:56;14.50;99.90
5792;DHT22;2922;53.482;10.006;2022-09-24T17:19:22;14.50;99.90
5792;DHT22;2922;53.482;10.006;2022-09-24T17:21:47;14.50;99.90
5792;DHT22;2922;53.482;10.006;2022-09-24T17:24:17;14.50;99.90
5792;DHT22;2922;53.482;10.006;2022-09-24T17:26:43;14.40;99.90
5792;DHT22;2922;53.482;10.006;2022-09-24T17:29:09;14.40;99.90
5792;DHT22;2922;53.482;10.006;2022-09-24T17:31:35;14.40;99.90
5792;DHT22;2922;53.482;10.006;2022-09-24T17:34:03;14.40;99.90
5792;DHT22;2922;53.482;10.006;2022-09-24T17:36:30;14.40;99.90
5792;DHT22;2922;53.482;10.006;2022-09-24T17:38:57;14.30;99.90
5792;DHT22;2922;53.482;10.006;2022-09-24T17:41:23;14.30;99.90
5792;DHT22;2922;53.482;10.006;2022-09-24T17:43:49;14.30;99.90
5792;DHT22;2922;53.482;10.006;2022-09-24T17:46:20;14.30;99.90
5792;DHT22;2922;53.482;10.006;2022-09-24T17:48:50;14.20;99.90
5792;DHT22;2922;53.482;10.006;2022-09-24T17:51:18;14.20;99.90
5792;DHT22;2922;53.482;10.006;2022-09-24T17:53:45;14.20;99.90